sensor_id;sensor_type;location;lat;lon;timestamp;P1;durP1;ratioP1;P2;durP2;ratioP2
2548;SDS011;1284;53.520;10.248;2022-12-07T00:01:28;7.35;;;4.50;;
2548;SDS011;1284;53.520;10.248;2022-12-07T00:03:55;8.07;;;3.97;;
2548;SDS011;1284;53.520;10.248;2022-12-07T00:06:25;7.55;;;3.65;;
2548;SDS011;1284;53.520;10.248;2022-12-07T00:08:51;8.48;;;4.28;;
2548;SDS011;1284;53.520;10.248;2022-12-07T00:11:18;6.85;;;3.78;;
2548;SDS011;1284;53.520;10.248;2022-12-07T00:13:46;6.00;;;3.08;;
2548;SDS011;1284;53.520;10.248;2022-12-07T00:16:17;6.03;;;2.65;;
2548;SDS011;1284;53.520;10.248;2022-12-07T00:18:44;7.35;;;3.15;;
2548;SDS011;1284;53.520;10.248;2022-12-07T00:21:12;5.57;;;3.30;;
2548;SDS011;1284;53.520;10.248;2022-12-07T00:23:39;6.20;;;3.30;;
2548;SDS011;1284;53.520;10.248;2022-12-07T00:26:48;5.35;;;2.92;;
2548;SDS011;1284;53.520;10.248;2022-12-07T00:29:00;6.05;;;3.50;;
2548;SDS011;1284;53.520;10.248;2022-12-07T00:31:29;6.72;;;3.78;;
2548;SDS011;1284;53.520;10.248;2022-12-07T00:33:58;11.45;;;4.63;;
2548;SDS011;1284;53.520;10.248;2022-12-07T00:36:24;5.53;;;3.05;;
2548;SDS011;1284;53.520;10.248;2022-12-07T00:38:50;7.53;;;3.60;;
2548;SDS011;1284;53.520;10.248;2022-12-07T00:41:17;7.47;;;3.65;;
2548;SDS011;1284;53.520;10.248;2022-12-07T00:43:44;7.28;;;3.55;;
2548;SDS011;1284;53.520;10.248;2022-12-07T00:46:11;7.78;;;4.13;;
2548;SDS011;1284;53.520;10.248;2022-12-07T00:48:37;8.68;;;4.03;;
2548;SDS011;1284;53.520;10.248;2022-12-07T00:51:02;7.00;;;3.22;;
2548;SDS011;1284;53.520;10.248;2022-12-07T00:53:28;6.88;;;3.58;;
2548;SDS011;1284;53.520;10.248;2022-12-07T00:55:54;8.07;;;4.80;;
2548;SDS011;1284;53.520;10.248;2022-12-07T00:58:21;6.50;;;3.92;;
2548;SDS011;1284;53.520;10.248;2022-12-07T01:00:47;7.32;;;3.67;;
2548;SDS011;1284;53.520;10.248;2022-12-07T01:03:14;6.07;;;3.53;;
2548;SDS011;1284;53.520;10.248;2022-12-07T01:05:40;5.30;;;3.63;;
2548;SDS011;1284;53.520;10.248;2022-12-07T01:08:14;9.70;;;5.30;;
2548;SDS011;1284;53.520;10.248;2022-12-07T01:10:40;5.43;;;3.75;;
2548;SDS011;1284;53.520;10.248;2022-12-07T01:13:05;6.82;;;3.00;;
2548;SDS011;1284;53.520;10.248;2022-12-07T01:15:31;6.18;;;3.85;;
2548;SDS011;1284;53.520;10.248;2022-12-07T01:17:56;5.70;;;3.63;;
2548;SDS011;1284;53.520;10.248;2022-12-07T01:20:21;4.38;;;2.95;;
2548;SDS011;1284;53.520;10.248;2022-12-07T01:22:47;9.07;;;4.50;;
2548;SDS011;1284;53.520;10.248;2022-12-07T01:25:13;7.00;;;3.47;;
2548;SDS011;1284;53.520;10.248;2022-12-07T01:27:38;6.90;;;3.40;;
2548;SDS011;1284;53.520;10.248;2022-12-07T01:30:04;5.88;;;3.80;;
2548;SDS011;1284;53.520;10.248;2022-12-07T01:32:32;3.72;;;2.63;;
2548;SDS011;1284;53.520;10.248;2022-12-07T01:34:58;5.22;;;3.20;;
2548;SDS011;1284;53.520;10.248;2022-12-07T01:37:23;5.93;;;4.03;;
2548;SDS011;1284;53.520;10.248;2022-12-07T01:39:50;9.20;;;3.45;;
2548;SDS011;1284;53.520;10.248;2022-12-07T01:42:16;3.97;;;2.28;;
2548;SDS011;1284;53.520;10.248;2022-12-07T01:47:50;4.35;;;2.92;;
2548;SDS011;1284;53.520;10.248;2022-12-07T01:50:20;4.95;;;2.92;;
2548;SDS011;1284;53.520;10.248;2022-12-07T01:52:49;8.20;;;3.60;;
2548;SDS011;1284;53.520;10.248;2022-12-07T01:55:19;5.35;;;2.97;;
2548;SDS011;1284;53.520;10.248;2022-12-07T01:57:46;5.47;;;3.15;;
2548;SDS011;1284;53.520;10.248;2022-12-07T02:00:14;6.78;;;3.22;;
2548;SDS011;1284;53.520;10.248;2022-12-07T02:02:45;5.63;;;2.28;;
2548;SDS011;1284;53.520;10.248;2022-12-07T02:05:16;2.35;;;2.03;;
2548;SDS011;1284;53.520;10.248;2022-12-07T02:07:42;6.22;;;2.78;;
2548;SDS011;1284;53.520;10.248;2022-12-07T02:10:12;7.50;;;2.83;;
2548;SDS011;1284;53.520;10.248;2022-12-07T02:12:37;3.15;;;2.53;;
2548;SDS011;1284;53.520;10.248;2022-12-07T02:15:03;4.53;;;2.70;;
2548;SDS011;1284;53.520;10.248;2022-12-07T02:17:32;6.32;;;2.90;;
2548;SDS011;1284;53.520;10.248;2022-12-07T02:30:25;4.65;;;2.38;;
2548;SDS011;1284;53.520;10.248;2022-12-07T02:33:06;2.92;;;2.33;;
2548;SDS011;1284;53.520;10.248;2022-12-07T02:35:36;3.72;;;1.85;;
2548;SDS011;1284;53.520;10.248;2022-12-07T02:43:43;3.58;;;2.10;;
2548;SDS011;1284;53.520;10.248;2022-12-07T02:46:14;3.30;;;2.20;;
2548;SDS011;1284;53.520;10.248;2022-12-07T02:48:43;1.42;;;1.30;;
2548;SDS011;1284;53.520;10.248;2022-12-07T02:51:09;4.65;;;2.28;;
2548;SDS011;1284;53.520;10.248;2022-12-07T02:53:39;4.57;;;1.92;;
2548;SDS011;1284;53.520;10.248;2022-12-07T02:56:25;1.63;;;1.40;;
2548;SDS011;1284;53.520;10.248;2022-12-07T03:01:28;5.90;;;1.70;;
2548;SDS011;1284;53.520;10.248;2022-12-07T03:04:29;3.30;;;1.70;;
2548;SDS011;1284;53.520;10.248;2022-12-07T03:12:17;2.78;;;2.03;;
2548;SDS011;1284;53.520;10.248;2022-12-07T03:14:49;2.03;;;1.15;;
2548;SDS011;1284;53.520;10.248;2022-12-07T03:17:24;2.28;;;1.05;;
2548;SDS011;1284;53.520;10.248;2022-12-07T03:19:54;2.20;;;1.60;;
2548;SDS011;1284;53.520;10.248;2022-12-07T03:22:23;1.10;;;0.73;;
2548;SDS011;1284;53.520;10.248;2022-12-07T03:24:54;1.00;;;0.90;;
2548;SDS011;1284;53.520;10.248;2022-12-07T03:27:27;2.38;;;0.95;;
2548;SDS011;1284;53.520;10.248;2022-12-07T03:30:00;1.48;;;1.15;;
2548;SDS011;1284;53.520;10.248;2022-12-07T03:37:30;2.28;;;1.92;;
2548;SDS011;1284;53.520;10.248;2022-12-07T03:42:56;4.35;;;0.70;;
2548;SDS011;1284;53.520;10.248;2022-12-07T03:45:26;0.55;;;0.55;;
2548;SDS011;1284;53.520;10.248;2022-12-07T03:48:07;4.93;;;1.10;;
2548;SDS011;1284;53.520;10.248;2022-12-07T03:50:52;0.75;;;0.75;;
2548;SDS011;1284;53.520;10.248;2022-12-07T03:53:27;1.70;;;1.33;;
2548;SDS011;1284;53.520;10.248;2022-12-07T03:55:59;1.08;;;0.77;;
2548;SDS011;1284;53.520;10.248;2022-12-07T03:58:26;1.45;;;1.10;;
2548;SDS011;1284;53.520;10.248;2022-12-07T04:00:54;0.75;;;0.75;;
2548;SDS011;1284;53.520;10.248;2022-12-07T04:03:20;4.60;;;1.10;;
2548;SDS011;1284;53.520;10.248;2022-12-07T04:05:45;0.68;;;0.68;;
2548;SDS011;1284;53.520;10.248;2022-12-07T04:08:11;0.60;;;0.60;;
2548;SDS011;1284;53.520;10.248;2022-12-07T04:10:36;0.85;;;0.85;;
2548;SDS011;1284;53.520;10.248;2022-12-07T04:13:02;0.80;;;0.80;;
2548;SDS011;1284;53.520;10.248;2022-12-07T04:15:27;2.67;;;1.52;;
2548;SDS011;1284;53.520;10.248;2022-12-07T04:17:53;1.02;;;0.73;;
2548;SDS011;1284;53.520;10.248;2022-12-07T04:20:19;0.50;;;0.50;;
2548;SDS011;1284;53.520;10.248;2022-12-07T04:22:45;0.60;;;0.60;;
2548;SDS011;1284;53.520;10.248;2022-12-07T04:25:11;0.70;;;0.70;;
2548;SDS011;1284;53.520;10.248;2022-12-07T04:27:36;2.75;;;0.93;;
2548;SDS011;1284;53.520;10.248;2022-12-07T04:30:01;1.20;;;0.80;;
2548;SDS011;1284;53.520;10.248;2022-12-07T04:32:27;0.93;;;0.88;;
2548;SDS011;1284;53.520;10.248;2022-12-07T04:34:53;1.20;;;1.00;;
2548;SDS011;1284;53.520;10.248;2022-12-07T04:37:18;0.55;;;0.45;;
2548;SDS011;1284;53.520;10.248;2022-12-07T04:39:44;1.73;;;0.85;;
2548;SDS011;1284;53.520;10.248;2022-12-07T04:42:12;0.82;;;0.80;;
2548;SDS011;1284;53.520;10.248;2022-12-07T04:44:38;3.40;;;0.73;;
2548;SDS011;1284;53.520;10.248;2022-12-07T04:47:04;0.93;;;0.77;;
2548;SDS011;1284;53.520;10.248;2022-12-07T04:49:29;0.95;;;0.70;;
2548;SDS011;1284;53.520;10.248;2022-12-07T04:51:55;0.50;;;0.50;;
2548;SDS011;1284;53.520;10.248;2022-12-07T04:54:20;0.73;;;0.70;;
2548;SDS011;1284;53.520;10.248;2022-12-07T04:56:46;0.95;;;0.95;;
2548;SDS011;1284;53.520;10.248;2022-12-07T04:59:12;0.90;;;0.85;;
2548;SDS011;1284;53.520;10.248;2022-12-07T05:01:39;0.60;;;0.60;;
2548;SDS011;1284;53.520;10.248;2022-12-07T05:04:05;1.48;;;0.75;;
2548;SDS011;1284;53.520;10.248;2022-12-07T05:06:31;0.75;;;0.75;;
2548;SDS011;1284;53.520;10.248;2022-12-07T05:08:57;1.02;;;0.60;;
2548;SDS011;1284;53.520;10.248;2022-12-07T05:11:24;1.75;;;0.95;;
2548;SDS011;1284;53.520;10.248;2022-12-07T05:16:39;5.10;;;1.15;;
2548;SDS011;1284;53.520;10.248;2022-12-07T05:19:05;1.02;;;0.85;;
2548;SDS011;1284;53.520;10.248;2022-12-07T05:21:32;1.45;;;0.95;;
2548;SDS011;1284;53.520;10.248;2022-12-07T05:23:57;1.23;;;1.02;;
2548;SDS011;1284;53.520;10.248;2022-12-07T05:26:23;1.67;;;0.82;;
2548;SDS011;1284;53.520;10.248;2022-12-07T05:28:52;1.02;;;0.73;;
2548;SDS011;1284;53.520;10.248;2022-12-07T05:31:18;0.43;;;0.43;;
2548;SDS011;1284;53.520;10.248;2022-12-07T05:33:44;2.00;;;1.15;;
2548;SDS011;1284;53.520;10.248;2022-12-07T05:36:09;0.65;;;0.65;;
2548;SDS011;1284;53.520;10.248;2022-12-07T05:38:35;2.30;;;1.00;;
2548;SDS011;1284;53.520;10.248;2022-12-07T05:41:01;0.57;;;0.57;;
2548;SDS011;1284;53.520;10.248;2022-12-07T05:43:30;0.93;;;0.80;;
2548;SDS011;1284;53.520;10.248;2022-12-07T05:45:56;0.95;;;0.77;;
2548;SDS011;1284;53.520;10.248;2022-12-07T05:48:22;0.95;;;0.77;;
2548;SDS011;1284;53.520;10.248;2022-12-07T05:50:48;1.15;;;1.00;;
2548;SDS011;1284;53.520;10.248;2022-12-07T05:53:14;0.50;;;0.50;;
2548;SDS011;1284;53.520;10.248;2022-12-07T05:55:40;0.77;;;0.77;;
2548;SDS011;1284;53.520;10.248;2022-12-07T05:58:05;1.63;;;1.00;;
2548;SDS011;1284;53.520;10.248;2022-12-07T06:00:49;0.73;;;0.73;;
2548;SDS011;1284;53.520;10.248;2022-12-07T06:03:15;1.23;;;0.95;;
2548;SDS011;1284;53.520;10.248;2022-12-07T06:05:40;1.00;;;0.90;;
2548;SDS011;1284;53.520;10.248;2022-12-07T06:08:06;1.90;;;1.13;;
2548;SDS011;1284;53.520;10.248;2022-12-07T06:10:32;0.65;;;0.65;;
2548;SDS011;1284;53.520;10.248;2022-12-07T06:12:57;2.70;;;1.23;;
2548;SDS011;1284;53.520;10.248;2022-12-07T06:15:23;2.50;;;1.10;;
2548;SDS011;1284;53.520;10.248;2022-12-07T06:17:48;1.83;;;1.27;;
2548;SDS011;1284;53.520;10.248;2022-12-07T06:20:14;1.55;;;1.20;;
2548;SDS011;1284;53.520;10.248;2022-12-07T06:22:39;1.20;;;0.98;;
2548;SDS011;1284;53.520;10.248;2022-12-07T06:25:05;1.88;;;0.98;;
2548;SDS011;1284;53.520;10.248;2022-12-07T06:27:31;1.73;;;1.30;;
2548;SDS011;1284;53.520;10.248;2022-12-07T06:29:57;0.82;;;0.82;;
2548;SDS011;1284;53.520;10.248;2022-12-07T06:32:24;0.77;;;0.77;;
2548;SDS011;1284;53.520;10.248;2022-12-07T06:34:49;2.25;;;1.02;;
2548;SDS011;1284;53.520;10.248;2022-12-07T06:37:15;0.80;;;0.80;;
2548;SDS011;1284;53.520;10.248;2022-12-07T06:39:40;1.15;;;0.95;;
2548;SDS011;1284;53.520;10.248;2022-12-07T06:42:07;1.52;;;1.15;;
2548;SDS011;1284;53.520;10.248;2022-12-07T06:44:32;1.20;;;1.10;;
2548;SDS011;1284;53.520;10.248;2022-12-07T06:46:58;2.75;;;1.42;;
2548;SDS011;1284;53.520;10.248;2022-12-07T06:49:23;1.98;;;1.10;;
2548;SDS011;1284;53.520;10.248;2022-12-07T06:51:49;2.40;;;1.45;;
2548;SDS011;1284;53.520;10.248;2022-12-07T06:54:15;5.78;;;1.45;;
2548;SDS011;1284;53.520;10.248;2022-12-07T06:56:42;1.73;;;1.48;;
2548;SDS011;1284;53.520;10.248;2022-12-07T06:59:07;2.67;;;1.75;;
2548;SDS011;1284;53.520;10.248;2022-12-07T07:01:33;1.80;;;1.20;;
2548;SDS011;1284;53.520;10.248;2022-12-07T07:04:00;0.82;;;0.82;;
2548;SDS011;1284;53.520;10.248;2022-12-07T07:06:26;2.20;;;0.82;;
2548;SDS011;1284;53.520;10.248;2022-12-07T07:08:51;4.05;;;0.90;;
2548;SDS011;1284;53.520;10.248;2022-12-07T07:11:17;1.63;;;1.35;;
2548;SDS011;1284;53.520;10.248;2022-12-07T07:13:42;5.05;;;1.10;;
2548;SDS011;1284;53.520;10.248;2022-12-07T07:16:09;7.55;;;1.40;;
2548;SDS011;1284;53.520;10.248;2022-12-07T07:18:35;1.55;;;1.20;;
2548;SDS011;1284;53.520;10.248;2022-12-07T07:21:01;2.00;;;1.25;;
2548;SDS011;1284;53.520;10.248;2022-12-07T07:23:27;2.03;;;1.45;;
2548;SDS011;1284;53.520;10.248;2022-12-07T07:25:53;0.77;;;0.77;;
2548;SDS011;1284;53.520;10.248;2022-12-07T07:28:18;3.10;;;1.33;;
2548;SDS011;1284;53.520;10.248;2022-12-07T07:30:44;0.90;;;0.65;;
2548;SDS011;1284;53.520;10.248;2022-12-07T07:33:10;1.70;;;1.00;;
2548;SDS011;1284;53.520;10.248;2022-12-07T07:35:36;1.95;;;1.20;;
2548;SDS011;1284;53.520;10.248;2022-12-07T07:38:02;0.77;;;0.70;;
2548;SDS011;1284;53.520;10.248;2022-12-07T07:40:28;1.42;;;0.93;;
2548;SDS011;1284;53.520;10.248;2022-12-07T07:42:54;6.15;;;1.30;;
2548;SDS011;1284;53.520;10.248;2022-12-07T07:45:21;0.90;;;0.90;;
2548;SDS011;1284;53.520;10.248;2022-12-07T07:47:48;1.38;;;1.10;;
2548;SDS011;1284;53.520;10.248;2022-12-07T07:50:14;0.93;;;0.65;;
2548;SDS011;1284;53.520;10.248;2022-12-07T07:52:40;0.63;;;0.63;;
2548;SDS011;1284;53.520;10.248;2022-12-07T07:55:06;1.10;;;0.95;;
2548;SDS011;1284;53.520;10.248;2022-12-07T07:57:34;0.88;;;0.75;;
2548;SDS011;1284;53.520;10.248;2022-12-07T08:00:00;1.90;;;1.00;;
2548;SDS011;1284;53.520;10.248;2022-12-07T08:02:25;1.85;;;0.85;;
2548;SDS011;1284;53.520;10.248;2022-12-07T08:04:51;1.30;;;1.00;;
2548;SDS011;1284;53.520;10.248;2022-12-07T08:07:17;0.77;;;0.77;;
2548;SDS011;1284;53.520;10.248;2022-12-07T08:09:42;1.25;;;1.05;;
2548;SDS011;1284;53.520;10.248;2022-12-07T08:12:08;1.35;;;1.20;;
2548;SDS011;1284;53.520;10.248;2022-12-07T08:14:33;1.23;;;0.70;;
2548;SDS011;1284;53.520;10.248;2022-12-07T08:16:59;0.50;;;0.50;;
2548;SDS011;1284;53.520;10.248;2022-12-07T08:19:25;1.67;;;0.80;;
2548;SDS011;1284;53.520;10.248;2022-12-07T08:21:51;1.38;;;0.60;;
2548;SDS011;1284;53.520;10.248;2022-12-07T08:24:16;0.75;;;0.75;;
2548;SDS011;1284;53.520;10.248;2022-12-07T08:26:42;0.95;;;0.57;;
2548;SDS011;1284;53.520;10.248;2022-12-07T08:29:08;0.98;;;0.75;;
2548;SDS011;1284;53.520;10.248;2022-12-07T08:31:34;2.25;;;1.52;;
2548;SDS011;1284;53.520;10.248;2022-12-07T08:33:59;2.20;;;0.88;;
2548;SDS011;1284;53.520;10.248;2022-12-07T08:36:25;3.28;;;1.23;;
2548;SDS011;1284;53.520;10.248;2022-12-07T08:38:51;1.00;;;0.80;;
2548;SDS011;1284;53.520;10.248;2022-12-07T08:41:17;0.82;;;0.82;;
2548;SDS011;1284;53.520;10.248;2022-12-07T08:43:43;0.85;;;0.80;;
2548;SDS011;1284;53.520;10.248;2022-12-07T08:46:11;0.98;;;0.85;;
2548;SDS011;1284;53.520;10.248;2022-12-07T08:48:49;1.38;;;1.10;;
2548;SDS011;1284;53.520;10.248;2022-12-07T08:51:21;0.65;;;0.65;;
2548;SDS011;1284;53.520;10.248;2022-12-07T08:53:48;1.92;;;1.27;;
2548;SDS011;1284;53.520;10.248;2022-12-07T08:56:16;1.52;;;1.38;;
2548;SDS011;1284;53.520;10.248;2022-12-07T08:58:45;0.60;;;0.60;;
2548;SDS011;1284;53.520;10.248;2022-12-07T09:01:11;2.40;;;0.70;;
2548;SDS011;1284;53.520;10.248;2022-12-07T09:03:37;0.75;;;0.75;;
2548;SDS011;1284;53.520;10.248;2022-12-07T09:06:02;1.25;;;0.90;;
2548;SDS011;1284;53.520;10.248;2022-12-07T09:08:30;1.50;;;1.13;;
2548;SDS011;1284;53.520;10.248;2022-12-07T09:10:57;0.80;;;0.80;;
2548;SDS011;1284;53.520;10.248;2022-12-07T09:13:23;1.00;;;0.70;;
2548;SDS011;1284;53.520;10.248;2022-12-07T09:15:48;0.75;;;0.60;;
2548;SDS011;1284;53.520;10.248;2022-12-07T09:18:14;0.63;;;0.63;;
2548;SDS011;1284;53.520;10.248;2022-12-07T09:20:40;2.15;;;1.20;;
2548;SDS011;1284;53.520;10.248;2022-12-07T09:23:06;0.63;;;0.63;;
2548;SDS011;1284;53.520;10.248;2022-12-07T09:25:32;1.38;;;0.77;;
2548;SDS011;1284;53.520;10.248;2022-12-07T09:28:00;0.75;;;0.60;;
2548;SDS011;1284;53.520;10.248;2022-12-07T09:30:26;2.03;;;1.13;;
2548;SDS011;1284;53.520;10.248;2022-12-07T09:32:56;1.58;;;0.95;;
2548;SDS011;1284;53.520;10.248;2022-12-07T09:35:22;0.73;;;0.73;;
2548;SDS011;1284;53.520;10.248;2022-12-07T09:37:49;2.60;;;1.08;;
2548;SDS011;1284;53.520;10.248;2022-12-07T09:40:14;0.70;;;0.70;;
2548;SDS011;1284;53.520;10.248;2022-12-07T09:42:42;2.90;;;1.38;;
2548;SDS011;1284;53.520;10.248;2022-12-07T09:45:15;0.73;;;0.63;;
2548;SDS011;1284;53.520;10.248;2022-12-07T09:47:44;2.15;;;1.00;;
2548;SDS011;1284;53.520;10.248;2022-12-07T09:50:14;1.08;;;0.73;;
2548;SDS011;1284;53.520;10.248;2022-12-07T09:52:43;0.65;;;0.65;;
2548;SDS011;1284;53.520;10.248;2022-12-07T09:55:21;2.60;;;0.77;;
2548;SDS011;1284;53.520;10.248;2022-12-07T09:57:52;1.15;;;0.73;;
2548;SDS011;1284;53.520;10.248;2022-12-07T10:00:19;1.10;;;1.10;;
2548;SDS011;1284;53.520;10.248;2022-12-07T10:02:59;0.95;;;0.93;;
2548;SDS011;1284;53.520;10.248;2022-12-07T10:05:34;1.55;;;1.20;;
2548;SDS011;1284;53.520;10.248;2022-12-07T10:08:03;3.25;;;0.98;;
2548;SDS011;1284;53.520;10.248;2022-12-07T10:10:30;0.75;;;0.70;;
2548;SDS011;1284;53.520;10.248;2022-12-07T10:13:02;5.75;;;1.20;;
2548;SDS011;1284;53.520;10.248;2022-12-07T10:15:40;1.13;;;1.02;;
2548;SDS011;1284;53.520;10.248;2022-12-07T10:18:13;4.95;;;1.70;;
2548;SDS011;1284;53.520;10.248;2022-12-07T10:21:13;2.80;;;1.15;;
2548;SDS011;1284;53.520;10.248;2022-12-07T10:24:03;0.73;;;0.73;;
2548;SDS011;1284;53.520;10.248;2022-12-07T10:26:33;1.25;;;1.05;;
2548;SDS011;1284;53.520;10.248;2022-12-07T10:29:24;1.98;;;0.80;;
2548;SDS011;1284;53.520;10.248;2022-12-07T10:34:28;2.13;;;1.45;;
2548;SDS011;1284;53.520;10.248;2022-12-07T10:39:54;1.85;;;1.05;;
2548;SDS011;1284;53.520;10.248;2022-12-07T10:42:28;1.33;;;0.82;;
2548;SDS011;1284;53.520;10.248;2022-12-07T10:45:09;1.27;;;1.05;;
2548;SDS011;1284;53.520;10.248;2022-12-07T11:03:55;3.28;;;0.90;;
2548;SDS011;1284;53.520;10.248;2022-12-07T11:06:36;0.77;;;0.68;;
2548;SDS011;1284;53.520;10.248;2022-12-07T11:09:21;2.40;;;1.02;;
2548;SDS011;1284;53.520;10.248;2022-12-07T11:22:57;1.65;;;0.80;;
2548;SDS011;1284;53.520;10.248;2022-12-07T11:25:32;1.55;;;0.60;;
2548;SDS011;1284;53.520;10.248;2022-12-07T11:33:26;1.65;;;0.70;;
2548;SDS011;1284;53.520;10.248;2022-12-07T11:37:00;3.28;;;0.95;;
2548;SDS011;1284;53.520;10.248;2022-12-07T11:39:20;0.63;;;0.52;;
2548;SDS011;1284;53.520;10.248;2022-12-07T11:41:56;1.75;;;0.52;;
2548;SDS011;1284;53.520;10.248;2022-12-07T11:47:38;0.40;;;0.40;;
2548;SDS011;1284;53.520;10.248;2022-12-07T12:03:40;0.68;;;0.50;;
2548;SDS011;1284;53.520;10.248;2022-12-07T12:06:11;1.42;;;0.68;;
2548;SDS011;1284;53.520;10.248;2022-12-07T12:08:39;1.30;;;0.65;;
2548;SDS011;1284;53.520;10.248;2022-12-07T12:12:00;1.65;;;1.10;;
2548;SDS011;1284;53.520;10.248;2022-12-07T12:25:51;4.28;;;0.75;;
2548;SDS011;1284;53.520;10.248;2022-12-07T12:31:14;0.98;;;0.88;;
2548;SDS011;1284;53.520;10.248;2022-12-07T12:33:46;2.75;;;0.60;;
2548;SDS011;1284;53.520;10.248;2022-12-07T12:44:38;0.98;;;0.63;;
2548;SDS011;1284;53.520;10.248;2022-12-07T12:47:03;1.65;;;0.63;;
2548;SDS011;1284;53.520;10.248;2022-12-07T12:53:12;2.28;;;1.05;;
2548;SDS011;1284;53.520;10.248;2022-12-07T12:56:08;3.65;;;0.60;;
2548;SDS011;1284;53.520;10.248;2022-12-07T12:58:43;3.28;;;0.65;;
2548;SDS011;1284;53.520;10.248;2022-12-07T13:03:58;3.80;;;0.70;;
2548;SDS011;1284;53.520;10.248;2022-12-07T13:08:49;2.20;;;0.68;;
2548;SDS011;1284;53.520;10.248;2022-12-07T13:11:20;2.58;;;1.35;;
2548;SDS011;1284;53.520;10.248;2022-12-07T13:13:56;0.55;;;0.40;;
2548;SDS011;1284;53.520;10.248;2022-12-07T13:16:57;2.95;;;0.95;;
2548;SDS011;1284;53.520;10.248;2022-12-07T13:25:29;6.32;;;0.40;;
2548;SDS011;1284;53.520;10.248;2022-12-07T13:28:17;1.85;;;0.73;;
2548;SDS011;1284;53.520;10.248;2022-12-07T13:30:47;0.65;;;0.40;;
2548;SDS011;1284;53.520;10.248;2022-12-07T13:33:24;1.13;;;0.55;;
2548;SDS011;1284;53.520;10.248;2022-12-07T13:35:54;0.68;;;0.50;;
2548;SDS011;1284;53.520;10.248;2022-12-07T13:38:28;0.68;;;0.55;;
2548;SDS011;1284;53.520;10.248;2022-12-07T13:48:55;0.98;;;0.77;;
2548;SDS011;1284;53.520;10.248;2022-12-07T13:51:23;10.43;;;0.77;;
2548;SDS011;1284;53.520;10.248;2022-12-07T13:53:55;0.93;;;0.60;;
2548;SDS011;1284;53.520;10.248;2022-12-07T13:56:32;2.03;;;0.70;;
2548;SDS011;1284;53.520;10.248;2022-12-07T13:58:59;0.50;;;0.50;;
2548;SDS011;1284;53.520;10.248;2022-12-07T14:01:25;0.20;;;0.20;;
2548;SDS011;1284;53.520;10.248;2022-12-07T14:03:51;2.40;;;0.63;;
2548;SDS011;1284;53.520;10.248;2022-12-07T14:06:19;1.45;;;0.40;;
2548;SDS011;1284;53.520;10.248;2022-12-07T14:08:50;0.57;;;0.30;;
2548;SDS011;1284;53.520;10.248;2022-12-07T14:11:32;0.43;;;0.43;;
2548;SDS011;1284;53.520;10.248;2022-12-07T14:13:59;3.15;;;1.35;;
2548;SDS011;1284;53.520;10.248;2022-12-07T14:16:31;1.17;;;1.08;;
2548;SDS011;1284;53.520;10.248;2022-12-07T14:19:05;0.43;;;0.43;;
2548;SDS011;1284;53.520;10.248;2022-12-07T14:22:06;0.40;;;0.35;;
2548;SDS011;1284;53.520;10.248;2022-12-07T14:24:41;0.85;;;0.43;;
2548;SDS011;1284;53.520;10.248;2022-12-07T14:27:16;6.53;;;0.60;;
2548;SDS011;1284;53.520;10.248;2022-12-07T14:29:43;5.70;;;0.50;;
2548;SDS011;1284;53.520;10.248;2022-12-07T14:32:27;0.40;;;0.40;;
2548;SDS011;1284;53.520;10.248;2022-12-07T14:37:27;5.35;;;0.88;;
2548;SDS011;1284;53.520;10.248;2022-12-07T14:39:53;2.17;;;0.50;;
2548;SDS011;1284;53.520;10.248;2022-12-07T14:42:19;0.88;;;0.52;;
2548;SDS011;1284;53.520;10.248;2022-12-07T14:44:45;2.95;;;0.77;;
2548;SDS011;1284;53.520;10.248;2022-12-07T14:47:10;0.38;;;0.38;;
2548;SDS011;1284;53.520;10.248;2022-12-07T14:49:36;0.40;;;0.40;;
2548;SDS011;1284;53.520;10.248;2022-12-07T14:52:02;0.85;;;0.50;;
2548;SDS011;1284;53.520;10.248;2022-12-07T14:54:30;0.77;;;0.60;;
2548;SDS011;1284;53.520;10.248;2022-12-07T14:56:57;4.72;;;0.90;;
2548;SDS011;1284;53.520;10.248;2022-12-07T14:59:23;1.85;;;0.50;;
2548;SDS011;1284;53.520;10.248;2022-12-07T15:01:48;0.90;;;0.75;;
2548;SDS011;1284;53.520;10.248;2022-12-07T15:04:14;0.28;;;0.28;;
2548;SDS011;1284;53.520;10.248;2022-12-07T15:06:39;2.15;;;0.52;;
2548;SDS011;1284;53.520;10.248;2022-12-07T15:09:05;2.22;;;1.20;;
2548;SDS011;1284;53.520;10.248;2022-12-07T15:11:31;0.45;;;0.45;;
2548;SDS011;1284;53.520;10.248;2022-12-07T15:13:56;0.30;;;0.30;;
2548;SDS011;1284;53.520;10.248;2022-12-07T15:16:36;0.50;;;0.50;;
2548;SDS011;1284;53.520;10.248;2022-12-07T15:19:04;4.03;;;0.80;;
2548;SDS011;1284;53.520;10.248;2022-12-07T15:21:30;0.32;;;0.32;;
2548;SDS011;1284;53.520;10.248;2022-12-07T15:23:56;1.65;;;0.40;;
2548;SDS011;1284;53.520;10.248;2022-12-07T15:26:21;0.25;;;0.25;;
2548;SDS011;1284;53.520;10.248;2022-12-07T15:28:47;0.40;;;0.40;;
2548;SDS011;1284;53.520;10.248;2022-12-07T15:31:17;0.98;;;0.68;;
2548;SDS011;1284;53.520;10.248;2022-12-07T15:33:42;1.02;;;0.95;;
2548;SDS011;1284;53.520;10.248;2022-12-07T15:36:20;1.95;;;0.60;;
2548;SDS011;1284;53.520;10.248;2022-12-07T15:38:48;1.08;;;0.55;;
2548;SDS011;1284;53.520;10.248;2022-12-07T15:41:14;0.30;;;0.30;;
2548;SDS011;1284;53.520;10.248;2022-12-07T15:43:40;1.63;;;0.82;;
2548;SDS011;1284;53.520;10.248;2022-12-07T15:46:28;1.35;;;0.45;;
2548;SDS011;1284;53.520;10.248;2022-12-07T15:49:06;0.80;;;0.60;;
2548;SDS011;1284;53.520;10.248;2022-12-07T15:51:34;0.50;;;0.50;;
2548;SDS011;1284;53.520;10.248;2022-12-07T15:53:59;0.50;;;0.50;;
2548;SDS011;1284;53.520;10.248;2022-12-07T15:56:25;0.32;;;0.32;;
2548;SDS011;1284;53.520;10.248;2022-12-07T15:58:50;0.50;;;0.50;;
2548;SDS011;1284;53.520;10.248;2022-12-07T16:01:17;0.30;;;0.30;;
2548;SDS011;1284;53.520;10.248;2022-12-07T16:03:45;0.50;;;0.50;;
2548;SDS011;1284;53.520;10.248;2022-12-07T16:06:11;0.30;;;0.30;;
2548;SDS011;1284;53.520;10.248;2022-12-07T16:08:41;0.55;;;0.55;;
2548;SDS011;1284;53.520;10.248;2022-12-07T16:11:07;4.53;;;0.83;;
2548;SDS011;1284;53.520;10.248;2022-12-07T16:13:33;2.75;;;1.00;;
2548;SDS011;1284;53.520;10.248;2022-12-07T16:16:03;3.75;;;0.80;;
2548;SDS011;1284;53.520;10.248;2022-12-07T16:18:30;1.15;;;0.70;;
2548;SDS011;1284;53.520;10.248;2022-12-07T16:20:55;0.55;;;0.55;;
2548;SDS011;1284;53.520;10.248;2022-12-07T16:23:21;2.20;;;0.95;;
2548;SDS011;1284;53.520;10.248;2022-12-07T16:25:46;4.00;;;1.85;;
2548;SDS011;1284;53.520;10.248;2022-12-07T16:28:11;5.07;;;1.20;;
2548;SDS011;1284;53.520;10.248;2022-12-07T16:30:37;1.50;;;1.40;;
2548;SDS011;1284;53.520;10.248;2022-12-07T16:33:02;1.60;;;1.00;;
2548;SDS011;1284;53.520;10.248;2022-12-07T16:35:28;3.72;;;2.20;;
2548;SDS011;1284;53.520;10.248;2022-12-07T16:37:53;6.45;;;2.45;;
2548;SDS011;1284;53.520;10.248;2022-12-07T16:40:19;3.20;;;1.38;;
2548;SDS011;1284;53.520;10.248;2022-12-07T16:42:44;1.90;;;1.33;;
2548;SDS011;1284;53.520;10.248;2022-12-07T16:45:10;2.25;;;1.48;;
2548;SDS011;1284;53.520;10.248;2022-12-07T16:47:37;2.35;;;1.42;;
2548;SDS011;1284;53.520;10.248;2022-12-07T16:50:03;2.50;;;1.58;;
2548;SDS011;1284;53.520;10.248;2022-12-07T16:52:29;2.78;;;1.02;;
2548;SDS011;1284;53.520;10.248;2022-12-07T16:54:54;1.80;;;1.10;;
2548;SDS011;1284;53.520;10.248;2022-12-07T16:57:20;3.92;;;1.35;;
2548;SDS011;1284;53.520;10.248;2022-12-07T16:59:45;5.68;;;1.63;;
2548;SDS011;1284;53.520;10.248;2022-12-07T17:02:11;1.55;;;1.40;;
2548;SDS011;1284;53.520;10.248;2022-12-07T17:04:37;2.38;;;1.48;;
2548;SDS011;1284;53.520;10.248;2022-12-07T17:07:05;3.15;;;2.15;;
2548;SDS011;1284;53.520;10.248;2022-12-07T17:09:31;2.25;;;1.50;;
2548;SDS011;1284;53.520;10.248;2022-12-07T17:11:57;1.30;;;1.20;;
2548;SDS011;1284;53.520;10.248;2022-12-07T17:14:22;2.05;;;1.50;;
2548;SDS011;1284;53.520;10.248;2022-12-07T17:17:06;3.05;;;1.83;;
2548;SDS011;1284;53.520;10.248;2022-12-07T17:19:32;2.13;;;1.48;;
2548;SDS011;1284;53.520;10.248;2022-12-07T17:21:57;2.20;;;1.45;;
2548;SDS011;1284;53.520;10.248;2022-12-07T17:24:23;3.63;;;1.58;;
2548;SDS011;1284;53.520;10.248;2022-12-07T17:26:48;2.75;;;1.70;;
2548;SDS011;1284;53.520;10.248;2022-12-07T17:29:15;2.20;;;1.67;;
2548;SDS011;1284;53.520;10.248;2022-12-07T17:31:41;1.77;;;1.33;;